This is the latest recevied weather packets stored in our database for station/object TULLARI. If no packets are shown the sender has not sent any weather packets the latest 10 day(s).
| Time | Temp. | Humidity | Pressure | Rain* | Wind** | Luminosity | Snow |
|---|---|---|---|---|---|---|---|
| 1777745231 | 6.67° C | 85% | 1008.9 hPa | - | - | - | - |
| 1777744031 | 7.22° C | 82% | 1009.2 hPa | - | - | - | - |
| 1777742831 | 7.78° C | 80% | 1009.5 hPa | - | - | - | - |
| 1777741630 | 7.78° C | 80% | 1009.6 hPa | - | - | - | - |
| 1777740431 | 7.78° C | 79% | 1009.8 hPa | - | - | - | - |
| 1777739230 | 7.78° C | 79% | 1009.9 hPa | - | - | - | - |
| 1777738030 | 7.78° C | 81% | 1010.3 hPa | - | - | - | - |
| 1777736830 | 8.33° C | 79% | 1010.5 hPa | - | - | - | - |
| 1777735630 | 8.33° C | 79% | 1010.9 hPa | - | - | - | - |
| 1777734431 | 8.33° C | 79% | 1011 hPa | - | - | - | - |
| 1777733229 | 8.33° C | 80% | 1011.1 hPa | - | - | - | - |
| 1777732030 | 8.33° C | 80% | 1011.3 hPa | - | - | - | - |
| 1777729630 | 7.78° C | 80% | 1011.4 hPa | - | - | - | - |
| 1777728430 | 8.33° C | 79% | 1011.6 hPa | - | - | - | - |
| 1777727230 | 8.89° C | 77% | 1011.6 hPa | - | - | - | - |
| 1777726030 | 8.89° C | 75% | 1011.6 hPa | - | - | - | - |
| 1777724830 | 8.89° C | 76% | 1011.9 hPa | - | - | - | - |
| 1777723630 | 8.89° C | 76% | 1012 hPa | - | - | - | - |
| 1777722430 | 8.89° C | 75% | 1012 hPa | - | - | - | - |
| 1777721230 | 9.44° C | 73% | 1012.3 hPa | - | - | - | - |
| 1777720030 | 9.44° C | 74% | 1012.3 hPa | - | - | - | - |
| 1777718829 | 8.33° C | 77% | 1012.2 hPa | - | - | - | - |
| 1777717629 | 8.33° C | 78% | 1012.1 hPa | - | - | - | - |
| 1777716429 | 8.33° C | 79% | 1012.1 hPa | - | - | - | - |
| 1777715229 | 8.33° C | 78% | 1012.3 hPa | - | - | - | - |
* Rain since midnight (hover to see other rain measurements)
** Current wind speed in m/s (hover to see current wind gust speed)